Time;durP1;ratioP1;P1;durP2;ratioP2;P2;SDS_P1;SDS_P2;PMS_P1;PMS_P2;Temp;Humidity;BMP_temperature;BMP_pressure;BME280_temperature;BME280_humidity;BME280_pressure;Samples;Min_cycle;Max_cycle;Signal;HPM_P1;HPM_P2
2023/06/19 00:00:45;;;;;;;1.65;0.75;;;;;;;21.66;59.72;100816.22;4996848;28;96644;-27
2023/06/19 00:03:10;;;;;;;1.00;0.60;;;;;;;21.58;58.77;100812.41;4996971;28;96764;-27
2023/06/19 00:05:35;;;;;;;1.40;0.52;;;;;;;21.49;59.55;100807.88;4996095;28;98063;-28
2023/06/19 00:08:03;;;;;;;2.80;0.55;;;;;;;21.49;61.46;100824.44;4996405;28;98112;-27
2023/06/19 00:10:28;;;;;;;0.95;0.32;;;;;;;21.44;60.61;100828.72;4996672;28;96547;-28
2023/06/19 00:12:54;;;;;;;0.80;0.38;;;;;;;21.33;61.90;100816.06;4996941;28;96936;-27
2023/06/19 00:15:19;;;;;;;1.30;0.65;;;;;;;21.35;61.97;100825.03;4996098;28;107895;-27
2023/06/19 00:17:44;;;;;;;1.10;0.60;;;;;;;21.30;62.97;100822.75;4995913;28;103924;-27
2023/06/19 00:20:10;;;;;;;1.27;0.70;;;;;;;21.24;62.50;100819.78;4996249;28;98784;-27
2023/06/19 00:22:35;;;;;;;1.30;0.73;;;;;;;21.24;62.76;100830.81;4997016;28;96561;-28
2023/06/19 00:25:00;;;;;;;1.20;0.68;;;;;;;21.17;63.93;100822.38;4996108;28;101265;-28
2023/06/19 00:27:26;;;;;;;1.40;0.70;;;;;;;21.17;62.98;100823.22;4996058;28;99482;-27
2023/06/19 00:29:51;;;;;;;1.35;0.77;;;;;;;21.13;63.05;100821.81;4995590;28;96484;-28
2023/06/19 00:32:17;;;;;;;1.92;0.88;;;;;;;21.13;62.82;100834.75;4996472;28;96822;-27
2023/06/19 00:34:42;;;;;;;1.52;0.80;;;;;;;21.04;65.13;100831.06;4994597;28;120477;-27
2023/06/19 00:37:09;;;;;;;1.58;0.80;;;;;;;20.92;65.17;100813.09;4995705;28;99147;-27
2023/06/19 00:39:35;;;;;;;3.47;1.10;;;;;;;20.92;66.38;100840.63;4995002;28;96661;-27
2023/06/19 00:42:01;;;;;;;1.55;0.90;;;;;;;20.81;65.02;100827.13;4994493;28;97012;-27
2023/06/19 00:44:26;;;;;;;3.05;1.00;;;;;;;20.82;65.77;100839.88;4994976;28;99241;-29
2023/06/19 00:47:00;;;;;;;2.58;1.33;;;;;;;20.79;66.96;100825.41;4995887;28;99557;-27
2023/06/19 00:49:27;;;;;;;1.27;0.75;;;;;;;20.85;66.81;100828.53;4995918;28;96534;-27
2023/06/19 00:51:53;;;;;;;1.98;1.13;;;;;;;20.78;66.75;100833.81;4994804;28;96862;-28
2023/06/19 00:54:19;;;;;;;1.95;0.90;;;;;;;20.77;67.43;100837.59;4995351;28;98467;-28
2023/06/19 00:56:45;;;;;;;4.20;1.63;;;;;;;20.67;68.23;100831.34;4994190;28;101268;-27
2023/06/19 00:59:17;;;;;;;2.17;1.13;;;;;;;20.51;69.63;100830.16;4995679;28;96858;-28
2023/06/19 01:01:43;;;;;;;2.13;1.17;;;;;;;20.50;70.14;100836.69;4994428;28;96877;-27
2023/06/19 01:04:08;;;;;;;2.80;1.38;;;;;;;20.53;69.29;100847.38;4994274;28;100801;-28
2023/06/19 01:07:09;;;;;;;2.20;1.23;;;;;;;20.49;69.79;100828.59;4995856;28;97737;-27
2023/06/19 01:09:44;;;;;;;1.85;1.10;;;;;;;20.52;70.46;100839.25;4995454;28;96619;-27
2023/06/19 01:12:16;;;;;;;2.03;1.02;;;;;;;20.51;69.65;100835.66;4994668;28;96734;-27
2023/06/19 01:14:53;;;;;;;2.55;1.13;;;;;;;20.57;70.49;100840.56;4994075;28;100961;-27
2023/06/19 01:17:19;;;;;;;2.60;1.60;;;;;;;20.51;69.90;100835.66;4995243;28;99155;-27
2023/06/19 01:19:44;;;;;;;2.90;1.70;;;;;;;20.48;71.02;100835.13;4995326;28;96806;-29
2023/06/19 01:22:09;;;;;;;3.50;1.98;;;;;;;20.46;71.25;100839.91;4995215;28;96855;-27
2023/06/19 01:24:35;;;;;;;4.10;1.88;;;;;;;20.44;70.84;100836.47;4995178;28;100053;-27
2023/06/19 01:27:00;;;;;;;2.00;1.48;;;;;;;20.42;71.34;100827.50;4994597;28;120661;-27
2023/06/19 01:29:25;;;;;;;3.25;1.67;;;;;;;20.40;71.61;100837.78;4995490;28;96627;-27
2023/06/19 01:32:07;;;;;;;3.72;1.90;;;;;;;20.39;70.97;100833.31;4995199;28;100826;-28
2023/06/19 01:34:33;;;;;;;;;;;;;;;20.37;72.71;100836.22;4992920;28;102107;-27
2023/06/19 01:36:59;;;;;;;2.15;1.35;;;;;;;20.31;74.28;100837.72;4995751;28;97783;-27
2023/06/19 01:39:25;;;;;;;2.80;1.67;;;;;;;20.29;72.72;100836.16;4993955;28;96578;-27
2023/06/19 01:41:52;;;;;;;3.10;1.77;;;;;;;20.32;73.28;100830.34;4995172;28;96872;-27
2023/06/19 01:44:18;;;;;;;2.53;1.50;;;;;;;20.35;73.74;100846.50;4993163;28;101020;-27
2023/06/19 01:46:46;;;;;;;2.67;1.52;;;;;;;20.32;73.80;100827.59;4995061;28;97625;-27
2023/06/19 01:49:12;;;;;;;2.15;1.38;;;;;;;20.32;73.18;100822.94;4993702;28;96789;-28
2023/06/19 01:51:37;;;;;;;2.65;1.60;;;;;;;20.35;72.57;100825.41;4995277;28;96822;-29
2023/06/19 01:54:04;;;;;;;2.53;1.52;;;;;;;20.38;73.81;100821.47;4994613;28;97959;-28
2023/06/19 01:56:29;;;;;;;2.53;1.48;;;;;;;20.32;73.58;100822.94;4993284;28;100755;-28
2023/06/19 01:58:55;;;;;;;5.07;1.88;;;;;;;20.33;73.82;100821.03;4994886;28;96625;-27
2023/06/19 02:01:21;;;;;;;2.80;1.67;;;;;;;20.34;73.71;100831.91;4994055;28;96808;-27
2023/06/19 02:03:46;;;;;;;2.38;1.42;;;;;;;20.33;74.17;100835.69;4994614;28;98509;-27
2023/06/19 02:06:11;;;;;;;4.50;1.58;;;;;;;20.34;74.88;100847.56;4994470;28;99238;-31
2023/06/19 02:08:37;;;;;;;3.78;1.73;;;;;;;20.32;75.31;100852.34;4994272;28;96540;-29
2023/06/19 02:11:02;;;;;;;3.50;1.77;;;;;;;20.34;75.60;100844.81;4995072;28;96846;-29
2023/06/19 02:13:27;;;;;;;4.03;1.85;;;;;;;20.36;74.80;100845.50;4994832;28;100333;-27
2023/06/19 02:15:53;;;;;;;4.05;2.28;;;;;;;20.29;76.48;100839.78;4994057;28;113427;-27
2023/06/19 02:18:18;;;;;;;3.60;2.10;;;;;;;20.35;74.93;100852.91;4994385;28;101145;-27
2023/06/19 02:20:43;;;;;;;3.80;2.25;;;;;;;20.36;74.49;100860.13;4994641;28;96900;-27
2023/06/19 02:23:08;;;;;;;3.88;2.10;;;;;;;20.31;77.06;100859.75;4994450;28;103690;-27
2023/06/19 02:25:35;;;;;;;5.13;2.60;;;;;;;20.32;77.49;100863.34;4994906;28;97452;-28
2023/06/19 02:28:00;;;;;;;7.95;3.13;;;;;;;20.31;79.26;100878.13;4993261;28;96581;-27
2023/06/19 02:30:25;;;;;;;7.43;3.58;;;;;;;20.22;77.90;100862.56;4994428;28;96822;-27
2023/06/19 02:32:51;;;;;;;4.90;3.25;;;;;;;20.18;80.47;100869.41;4993473;28;108548;-28
2023/06/19 02:35:17;;;;;;;6.60;3.67;;;;;;;20.19;79.99;100888.50;4992964;28;108830;-27
2023/06/19 02:37:42;;;;;;;6.20;3.75;;;;;;;20.15;80.75;100885.19;4994638;28;96589;-27
2023/06/19 02:40:10;;;;;;;7.85;4.18;;;;;;;20.18;78.74;100903.25;4994632;28;96820;-28
2023/06/19 02:42:35;;;;;;;7.28;4.35;;;;;;;20.21;80.12;100899.34;4992693;28;101428;-27
2023/06/19 02:45:03;;;;;;;7.05;4.50;;;;;;;20.07;81.65;100889.72;4994283;28;97785;-27
2023/06/19 02:47:32;;;;;;;5.32;3.35;;;;;;;20.05;81.87;100889.91;4992977;28;96761;-28
2023/06/19 02:50:03;;;;;;;5.57;3.08;;;;;;;20.11;80.37;100894.75;4993484;28;96810;-27
2023/06/19 02:52:28;;;;;;;7.18;4.00;;;;;;;20.13;81.57;100911.13;4992749;28;101023;-27
2023/06/19 02:54:54;;;;;;;7.63;4.38;;;;;;;20.08;82.11;100902.47;4994200;28;97857;-27
2023/06/19 02:57:19;;;;;;;8.00;3.85;;;;;;;20.02;81.39;100906.72;4994009;28;96784;-27
2023/06/19 02:59:45;;;;;;;7.43;4.40;;;;;;;20.05;80.62;100917.41;4994325;28;96771;-29
2023/06/19 03:02:11;;;;;;;9.77;3.70;;;;;;;20.01;79.86;100915.97;4993541;28;99986;-27
2023/06/19 03:04:36;;;;;;;5.53;3.13;;;;;;;20.07;79.43;100925.47;4993960;28;97873;-29
2023/06/19 03:07:02;;;;;;;4.85;2.92;;;;;;;20.03;80.23;100915.81;4994811;28;96618;-27
2023/06/19 03:09:28;;;;;;;5.30;3.40;;;;;;;20.10;79.25;100920.56;4996436;28;96960;-27
2023/06/19 03:11:54;;;;;;;6.13;3.13;;;;;;;20.11;79.76;100932.41;4997436;28;98141;-27
2023/06/19 03:14:20;;;;;;;5.25;3.42;;;;;;;20.10;79.27;100925.19;4997468;28;99207;-27
2023/06/19 03:16:45;;;;;;;5.35;3.15;;;;;;;20.12;78.86;100929.50;4997506;28;96891;-27
2023/06/19 03:19:10;;;;;;;5.15;3.17;;;;;;;20.16;78.19;100930.06;4997737;28;96856;-27
2023/06/19 03:21:35;;;;;;;7.13;3.60;;;;;;;20.17;78.50;100931.81;4996400;28;106974;-28
2023/06/19 03:24:01;;;;;;;5.18;2.92;;;;;;;20.12;78.46;100936.91;4997171;28;97275;-27
2023/06/19 03:26:26;;;;;;;5.35;3.13;;;;;;;20.11;77.24;100938.75;4997561;28;96667;-28
2023/06/19 03:28:52;;;;;;;8.55;2.88;;;;;;;20.14;77.04;100946.72;4997152;28;96813;-27
2023/06/19 03:31:17;;;;;;;4.03;2.45;;;;;;;20.20;77.14;100955.38;4995356;28;101241;-27
2023/06/19 03:33:43;;;;;;;6.90;3.30;;;;;;;20.09;78.06;100953.69;4996569;28;99134;-27
2023/06/19 03:36:08;;;;;;;5.50;2.75;;;;;;;20.14;77.62;100962.34;4996642;28;97033;-27
2023/06/19 03:38:34;;;;;;;5.80;3.22;;;;;;;20.11;77.92;100957.16;4997509;28;96844;-29
2023/06/19 03:41:00;;;;;;;6.22;3.22;;;;;;;20.11;77.50;100962.66;4996762;28;99315;-27
2023/06/19 03:43:25;;;;;;;5.00;2.67;;;;;;;20.04;77.08;100961.53;4997034;28;98216;-27
2023/06/19 03:45:50;;;;;;;4.78;2.63;;;;;;;20.00;78.16;100974.75;4996399;28;96673;-27
2023/06/19 03:48:17;;;;;;;5.22;2.88;;;;;;;19.98;77.52;100979.53;4996748;28;98948;-27
2023/06/19 03:50:42;;;;;;;5.50;1.90;;;;;;;19.94;77.89;100984.47;4995421;28;101016;-27
2023/06/19 03:53:08;;;;;;;3.42;1.95;;;;;;;19.95;77.67;100996.34;4996783;28;98338;-27
2023/06/19 03:55:33;;;;;;;2.80;2.05;;;;;;;19.90;78.02;100994.06;4997074;28;96790;-27
2023/06/19 03:57:58;;;;;;;4.65;1.75;;;;;;;19.87;77.14;100983.34;4996569;28;98426;-27
2023/06/19 04:00:24;;;;;;;4.55;2.10;;;;;;;19.94;77.60;101006.44;4995739;28;119589;-28
2023/06/19 04:02:49;;;;;;;5.30;1.98;;;;;;;19.92;77.93;100992.00;4996598;28;99272;-27
2023/06/19 04:05:17;;;;;;;2.63;1.70;;;;;;;19.87;77.29;100997.06;4997143;28;96465;-28
2023/06/19 04:07:43;;;;;;;2.15;1.45;;;;;;;;;;4995354;28;96813;-28
2023/06/19 04:10:08;;;;;;;5.03;1.70;;;;;;;19.88;77.31;101012.56;4995906;28;99308;-30
2023/06/19 04:12:34;;;;;;;3.10;1.33;;;;;;;19.79;77.22;101012.63;4996373;28;99325;-27
2023/06/19 04:15:00;;;;;;;2.22;1.27;;;;;;;19.77;77.39;101023.75;4996534;28;96544;-28
2023/06/19 04:17:25;;;;;;;3.00;1.65;;;;;;;19.73;76.97;101030.56;4996742;28;96744;-27
2023/06/19 04:19:50;;;;;;;3.47;2.08;;;;;;;19.67;77.42;101031.13;4995997;28;111044;-27
2023/06/19 04:22:15;;;;;;;3.33;1.90;;;;;;;19.66;77.55;101040.38;4996114;28;111364;-27
2023/06/19 04:24:41;;;;;;;3.55;2.05;;;;;;;19.65;77.01;101042.28;4996623;28;96449;-27
2023/06/19 04:27:08;;;;;;;3.70;2.60;;;;;;;19.64;76.76;101054.28;4996975;28;96786;-27
2023/06/19 04:29:33;;;;;;;5.22;2.83;;;;;;;19.55;76.08;101041.44;4994380;28;101370;-28
2023/06/19 04:31:59;;;;;;;5.00;2.70;;;;;;;19.51;76.24;101042.75;4994711;28;100708;-27
2023/06/19 04:34:25;;;;;;;4.70;2.80;;;;;;;19.55;76.53;101051.56;4995414;28;96811;-27
2023/06/19 04:36:51;;;;;;;5.03;3.10;;;;;;;19.61;75.62;101065.56;4996085;28;96681;-27
2023/06/19 04:39:16;;;;;;;4.20;2.65;;;;;;;19.55;75.94;101065.31;4995990;28;97468;-27
2023/06/19 04:41:43;;;;;;;5.05;2.78;;;;;;;19.58;76.03;101065.88;4995798;28;99704;-27
2023/06/19 04:44:11;;;;;;;5.82;2.28;;;;;;;19.60;75.90;101076.72;4994739;28;96709;-27
2023/06/19 04:46:37;;;;;;;5.68;3.08;;;;;;;19.52;75.64;101067.34;4996386;28;96743;-28
2023/06/19 04:49:03;;;;;;;5.10;3.03;;;;;;;19.49;76.26;101072.25;4995980;28;97956;-27
2023/06/19 04:51:31;;;;;;;5.85;3.17;;;;;;;19.39;76.87;101068.66;4996533;28;97226;-28
2023/06/19 04:53:56;;;;;;;5.07;2.75;;;;;;;19.42;76.43;101080.19;4994727;28;96699;-27
2023/06/19 04:56:22;;;;;;;4.38;2.38;;;;;;;19.44;75.85;101080.06;4996010;28;96771;-27
2023/06/19 04:58:48;;;;;;;5.70;3.00;;;;;;;19.51;75.45;101087.56;4994723;28;101876;-27
2023/06/19 05:01:15;;;;;;;4.10;2.75;;;;;;;19.47;75.91;101082.50;4995501;28;99886;-27
2023/06/19 05:03:41;;;;;;;6.78;2.85;;;;;;;19.49;75.93;101088.72;4994596;28;97226;-27
2023/06/19 05:06:07;;;;;;;4.47;2.63;;;;;;;19.48;75.33;101084.25;4994485;28;96948;-27
2023/06/19 05:08:32;;;;;;;5.18;2.85;;;;;;;19.53;75.15;101096.53;4994069;28;98950;-27
2023/06/19 05:10:58;;;;;;;4.80;2.63;;;;;;;19.53;75.40;101101.16;4995651;28;96913;-27
2023/06/19 05:13:24;;;;;;;5.70;2.17;;;;;;;19.51;75.54;101093.06;4995493;28;96678;-27
2023/06/19 05:15:50;;;;;;;6.72;3.30;;;;;;;19.51;75.49;101095.81;4994702;28;96849;-28
2023/06/19 05:18:16;;;;;;;5.53;2.88;;;;;;;19.41;75.96;101083.97;4995158;28;99610;-27
2023/06/19 05:20:41;;;;;;;6.55;2.72;;;;;;;19.45;75.38;101087.28;4995239;28;98015;-27
2023/06/19 05:23:06;;;;;;;5.07;3.28;;;;;;;19.49;75.82;101095.09;4995526;28;96691;-27
2023/06/19 05:25:32;;;;;;;5.93;3.60;;;;;;;19.47;75.51;101101.75;4995344;28;101589;-27
2023/06/19 05:27:57;;;;;;;5.55;3.22;;;;;;;19.46;75.91;101103.63;4994700;28;104929;-27
2023/06/19 05:30:22;;;;;;;7.78;3.70;;;;;;;19.45;75.41;101115.66;4994596;28;97744;-27
2023/06/19 05:32:48;;;;;;;6.90;3.53;;;;;;;19.49;74.73;101129.94;4995373;28;97139;-27
2023/06/19 05:35:13;;;;;;;8.02;3.95;;;;;;;19.45;74.89;101129.38;4994249;28;100813;-27
2023/06/19 05:37:39;;;;;;;6.65;3.78;;;;;;;19.52;74.00;101130.53;4995200;28;98400;-27
2023/06/19 05:40:06;;;;;;;5.40;3.45;;;;;;;19.57;73.58;101134.69;4995555;28;97795;-28
2023/06/19 05:42:31;;;;;;;5.88;3.42;;;;;;;19.62;73.15;101130.53;4993814;28;96627;-27
2023/06/19 05:44:56;;;;;;;5.53;3.15;;;;;;;19.55;73.01;101142.25;4995213;28;96791;-28
2023/06/19 05:47:25;;;;;;;5.82;3.15;;;;;;;19.57;72.97;101143.84;4994516;28;98008;-27
2023/06/19 05:49:51;;;;;;;7.28;3.17;;;;;;;19.53;72.80;101146.00;4994741;28;99612;-28
2023/06/19 05:52:17;;;;;;;9.18;3.65;;;;;;;19.47;73.03;101146.59;4995339;28;96576;-28
2023/06/19 05:54:42;;;;;;;6.68;3.83;;;;;;;19.39;73.36;101149.19;4995259;28;96726;-27
2023/06/19 05:57:08;;;;;;;8.43;3.95;;;;;;;19.38;73.24;101149.31;4994481;28;99343;-27
2023/06/19 05:59:33;;;;;;;7.95;3.33;;;;;;;19.38;73.22;101152.06;4994532;28;98741;-27
2023/06/19 06:01:58;;;;;;;7.70;4.00;;;;;;;19.39;72.93;101154.69;4995121;28;96563;-28
2023/06/19 06:04:23;;;;;;;6.47;3.95;;;;;;;19.39;73.01;101171.16;4995527;28;96804;-27
2023/06/19 06:06:49;;;;;;;8.50;3.72;;;;;;;19.27;73.46;101164.94;4994249;28;103922;-27
2023/06/19 06:09:16;;;;;;;5.88;3.55;;;;;;;19.30;73.58;101169.28;4994487;28;99182;-31
2023/06/19 06:11:41;;;;;;;8.07;3.97;;;;;;;19.29;73.00;101165.66;4994283;28;96923;-28
2023/06/19 06:14:07;;;;;;;6.53;3.42;;;;;;;19.37;73.03;101167.69;4994965;28;96736;-27
2023/06/19 06:16:32;;;;;;;6.72;3.83;;;;;;;19.32;72.76;101164.50;4992975;28;100017;-27
2023/06/19 06:18:58;;;;;;;7.13;3.38;;;;;;;19.30;72.45;101167.38;4994008;28;118377;-27
2023/06/19 06:21:24;;;;;;;7.00;3.42;;;;;;;19.37;72.33;101178.66;4993344;28;96552;-27
2023/06/19 06:23:49;;;;;;;5.65;3.22;;;;;;;19.41;72.15;101185.63;4994889;28;96812;-27
2023/06/19 06:26:14;;;;;;;6.40;3.63;;;;;;;19.35;72.09;101179.81;4993152;28;98055;-27
2023/06/19 06:28:40;;;;;;;6.18;3.22;;;;;;;19.40;72.00;101192.16;4994446;28;99198;-27
2023/06/19 06:31:05;;;;;;;5.22;3.13;;;;;;;19.46;71.83;101187.94;4994711;28;96541;-27
2023/06/19 06:33:30;;;;;;;6.18;3.58;;;;;;;19.51;71.73;101196.63;4994830;28;96463;-27
2023/06/19 06:35:58;;;;;;;6.53;3.90;;;;;;;19.58;71.51;101192.28;4992871;28;110144;-27
2023/06/19 06:38:23;;;;;;;8.05;4.82;;;;;;;19.60;71.95;101203.13;4992748;28;100837;-27
2023/06/19 06:40:48;;;;;;;7.63;4.45;;;;;;;19.46;72.69;101191.56;4994734;28;96751;-28
2023/06/19 06:43:14;;;;;;;10.15;5.53;;;;;;;19.48;73.10;101213.41;4998257;28;96865;-27
2023/06/19 06:45:41;;;;;;;9.90;5.18;;;;;;;19.49;72.70;101213.22;4997525;28;99356;-29
2023/06/19 06:48:07;;;;;;;10.55;5.35;;;;;;;19.51;72.52;101222.22;5010373;28;101562;-27
2023/06/19 06:50:33;;;;;;;9.20;5.53;;;;;;;19.51;72.55;101219.47;5018127;28;96537;-27
2023/06/19 06:52:58;;;;;;;9.32;5.35;;;;;;;19.49;72.43;101218.72;5017695;28;96840;-27
2023/06/19 06:55:23;;;;;;;11.52;5.70;;;;;;;19.52;72.16;101240.44;5016874;28;104556;-27
2023/06/19 06:57:49;;;;;;;14.23;6.38;;;;;;;19.44;72.37;101226.53;5006633;28;99373;-27
2023/06/19 07:00:15;;;;;;;10.48;5.68;;;;;;;19.43;72.92;101237.69;4997273;28;96735;-27
2023/06/19 07:02:40;;;;;;;9.95;5.93;;;;;;;19.42;72.65;101247.78;5016733;28;96925;-27
2023/06/19 07:05:07;;;;;;;10.07;6.03;;;;;;;19.42;72.70;101253.28;5017499;28;97999;-27
2023/06/19 07:07:32;;;;;;;10.43;5.75;;;;;;;19.46;72.45;101245.63;5014505;28;101917;-27
2023/06/19 07:09:58;;;;;;;10.00;5.63;;;;;;;19.51;72.68;101265.31;5017826;28;96699;-27
2023/06/19 07:12:23;;;;;;;11.35;5.90;;;;;;;19.49;72.75;101253.59;5017638;28;96817;-27
2023/06/19 07:14:48;;;;;;;10.93;6.18;;;;;;;19.46;72.43;101254.75;5016804;28;114489;-27
2023/06/19 07:17:14;;;;;;;14.38;6.47;;;;;;;19.49;72.74;101267.34;5017252;28;98285;-27
2023/06/19 07:19:39;;;;;;;10.10;5.43;;;;;;;19.44;72.33;101261.41;5017587;28;97112;-27
2023/06/19 07:22:04;;;;;;;11.82;5.55;;;;;;;19.47;72.67;101255.59;5016489;28;96943;-30
2023/06/19 07:24:30;;;;;;;12.68;6.88;;;;;;;19.40;72.56;101258.09;5014083;28;99739;-27
2023/06/19 07:26:56;;;;;;;12.70;6.22;;;;;;;19.49;72.94;101265.44;5014499;28;98007;-29
2023/06/19 07:29:22;;;;;;;10.98;5.63;;;;;;;19.58;72.42;101271.13;5014523;28;96976;-29
2023/06/19 07:31:47;;;;;;;12.07;6.20;;;;;;;19.68;71.97;101274.75;5015110;28;97170;-28
2023/06/19 07:34:13;;;;;;;10.43;6.10;;;;;;;19.69;71.71;101273.78;5013583;28;112490;-33
2023/06/19 07:36:39;;;;;;;10.70;6.30;;;;;;;19.67;71.95;101275.75;5013437;28;99534;-27
2023/06/19 07:39:04;;;;;;;11.30;5.72;;;;;;;19.77;71.65;101278.53;5014637;28;96660;-27
2023/06/19 07:41:30;;;;;;;8.52;5.28;;;;;;;19.77;71.31;101264.81;5016568;28;96738;-28
2023/06/19 07:43:55;;;;;;;10.68;6.07;;;;;;;19.79;71.71;101276.53;5015951;28;97911;-30
2023/06/19 07:46:20;;;;;;;10.45;6.22;;;;;;;19.78;71.62;101280.28;5013429;28;97967;-28
2023/06/19 07:48:46;;;;;;;10.38;5.78;;;;;;;19.70;71.69;101270.00;5013454;28;97091;-27
2023/06/19 07:51:11;;;;;;;11.20;6.13;;;;;;;19.70;71.78;101267.25;5013444;28;96773;-28
2023/06/19 07:53:37;;;;;;;12.20;5.43;;;;;;;19.75;71.60;101281.44;5013108;28;97852;-28
2023/06/19 07:56:03;;;;;;;8.48;5.20;;;;;;;19.83;71.27;101283.44;5012851;28;99506;-31
2023/06/19 07:58:29;;;;;;;9.88;5.63;;;;;;;19.80;71.05;101289.25;5013572;28;96693;-32
2023/06/19 08:00:54;;;;;;;7.95;4.93;;;;;;;19.75;71.63;101289.66;5013624;28;96981;-29
2023/06/19 08:03:21;;;;;;;12.95;5.32;;;;;;;19.68;71.73;101283.88;5015071;28;98874;-29
2023/06/19 08:05:46;;;;;;;8.98;5.20;;;;;;;19.73;72.04;101297.19;5014276;28;100780;-28
2023/06/19 08:08:13;;;;;;;10.93;6.05;;;;;;;19.75;71.99;101295.16;5015420;28;96453;-27
2023/06/19 08:10:38;;;;;;;12.88;6.05;;;;;;;19.76;71.51;101287.78;5014437;28;96801;-27
2023/06/19 08:13:03;;;;;;;10.65;4.95;;;;;;;19.82;70.87;101287.22;5014701;28;98191;-27
2023/06/19 08:15:29;;;;;;;13.02;5.60;;;;;;;19.89;71.33;101304.88;5015373;28;97740;-27
2023/06/19 08:17:54;;;;;;;9.45;5.60;;;;;;;19.83;70.98;101308.19;5015559;28;96427;-27
2023/06/19 08:20:20;;;;;;;10.43;5.93;;;;;;;19.75;71.95;101308.06;5015387;28;96706;-27
2023/06/19 08:22:46;;;;;;;10.30;5.75;;;;;;;19.81;72.02;101313.00;5013553;28;100801;-28
2023/06/19 08:25:11;;;;;;;9.00;5.43;;;;;;;19.77;71.34;101308.78;5015262;28;97319;-27
2023/06/19 08:27:37;;;;;;;11.70;6.28;;;;;;;19.85;71.90;101317.16;5015507;28;96623;-27
2023/06/19 08:30:03;;;;;;;10.32;6.03;;;;;;;19.93;71.28;101329.19;5015381;28;96849;-27
2023/06/19 08:32:28;;;;;;;9.57;5.70;;;;;;;20.00;71.14;101325.84;5014856;28;98695;-27
2023/06/19 08:34:53;;;;;;;13.10;6.30;;;;;;;20.11;70.75;101331.22;4973862;28;1148538;-28
2023/06/19 08:37:19;;;;;;;11.30;6.10;;;;;;;20.29;70.15;101332.25;5015875;28;96505;-28
2023/06/19 08:39:44;;;;;;;12.18;5.95;;;;;;;20.35;69.68;101331.66;5016225;28;96834;-27
2023/06/19 08:42:10;;;;;;;12.50;6.18;;;;;;;20.47;69.41;101335.09;5016062;28;97951;-27
2023/06/19 08:44:36;;;;;;;11.60;5.60;;;;;;;20.72;68.74;101310.75;5016251;28;97231;-27
2023/06/19 08:47:03;;;;;;;9.52;5.88;;;;;;;20.90;68.18;101319.09;5014882;28;96444;-27
2023/06/19 08:49:34;;;;;;;10.75;5.30;;;;;;;21.14;67.71;101321.31;5014755;28;96807;-27
2023/06/19 08:52:03;;;;;;;10.27;5.97;;;;;;;21.12;67.47;101318.72;5009844;28;100903;-27
2023/06/19 08:54:28;;;;;;;9.02;5.05;;;;;;;21.38;66.88;101324.41;5014323;28;101100;-27
2023/06/19 08:56:54;;;;;;;9.50;5.07;;;;;;;21.34;66.44;101322.09;5015949;28;96483;-28
2023/06/19 08:59:20;;;;;;;9.32;5.22;;;;;;;21.31;66.68;101330.66;5011184;28;96818;-27
2023/06/19 09:01:51;;;;;;;9.85;5.45;;;;;;;21.38;66.49;101337.28;5003614;28;100696;-27
2023/06/19 09:04:21;;;;;;;12.45;6.05;;;;;;;21.38;66.45;101337.28;5034536;28;97864;-27
2023/06/19 09:06:55;;;;;;;15.27;5.68;;;;;;;21.28;66.44;101347.50;5035515;27;97139;-27
2023/06/19 09:09:22;;;;;;;9.45;5.88;;;;;;;21.15;66.77;101348.72;5034572;28;96824;-27
2023/06/19 09:11:57;;;;;;;10.38;6.00;;;;;;;21.09;67.06;101354.81;5034073;28;101571;-27
2023/06/19 09:14:31;;;;;;;10.07;5.60;;;;;;;20.89;66.97;101355.94;5035589;28;97497;-28
2023/06/19 09:16:56;;;;;;;13.38;6.90;;;;;;;20.93;67.62;101361.00;5034435;28;96607;-27
2023/06/19 09:19:21;;;;;;;12.13;6.82;;;;;;;20.94;67.34;101364.59;5035808;27;96858;-27
2023/06/19 09:21:47;;;;;;;12.52;7.15;;;;;;;21.03;66.99;101371.13;5035185;27;99249;-27
2023/06/19 09:24:12;;;;;;;10.55;5.63;;;;;;;21.04;67.08;101361.81;5035282;27;104064;-27
2023/06/19 09:26:37;;;;;;;10.70;6.47;;;;;;;21.11;66.53;101365.72;5035069;27;96613;-27
2023/06/19 09:29:18;;;;;;;10.07;6.22;;;;;;;21.69;65.54;101373.75;5035461;28;96912;-27
2023/06/19 09:31:44;;;;;;;10.30;6.28;;;;;;;21.78;64.90;101372.78;5035040;27;99967;-28
2023/06/19 09:34:09;;;;;;;8.77;5.35;;;;;;;21.70;64.50;101369.94;5035106;27;97758;-28
2023/06/19 09:36:35;;;;;;;11.07;6.20;;;;;;;21.96;64.00;101374.72;5035688;28;96535;-27
2023/06/19 09:39:03;;;;;;;13.63;6.07;;;;;;;22.06;63.93;101378.28;5034054;28;96943;-27
2023/06/19 09:41:33;;;;;;;10.27;6.07;;;;;;;22.22;63.46;101383.13;5033780;28;101095;-27
2023/06/19 09:43:59;;;;;;;11.18;6.45;;;;;;;22.48;62.64;101391.50;5034053;28;100992;-27
2023/06/19 09:46:33;;;;;;;10.80;6.10;;;;;;;22.65;60.80;101381.44;5033791;28;96577;-27
2023/06/19 09:49:01;;;;;;;9.70;5.28;;;;;;;22.70;60.47;101379.06;5033950;28;96734;-27
2023/06/19 09:51:37;;;;;;;12.38;6.00;;;;;;;22.96;60.99;101392.03;5034224;28;99471;-27
2023/06/19 09:54:06;;;;;;;9.30;5.35;;;;;;;22.93;61.00;101395.09;5034976;27;97937;-29
2023/06/19 09:56:32;;;;;;;9.07;5.63;;;;;;;22.96;60.23;101392.03;5033652;28;96580;-28
2023/06/19 09:58:59;;;;;;;11.75;5.32;;;;;;;23.11;59.80;101394.06;5033608;28;96874;-27
2023/06/19 10:01:29;;;;;;;11.77;5.47;;;;;;;23.49;59.29;101390.97;5033473;28;100976;-27
2023/06/19 10:04:10;;;;;;;8.38;5.00;;;;;;;23.82;58.14;101388.38;5033357;28;100727;-28
2023/06/19 10:06:43;;;;;;;9.48;5.80;;;;;;;23.59;58.12;101390.84;5035240;27;96773;-28
2023/06/19 10:09:09;;;;;;;9.55;4.97;;;;;;;23.90;57.90;101392.03;5034037;28;96831;-27
2023/06/19 10:12:11;;;;;;;6.05;4.25;;;;;;;24.30;56.40;101389.53;5034746;27;98005;-27
2023/06/19 10:14:47;;;;;;;6.00;3.95;;;;;;;24.48;56.08;101386.59;5025910;27;100782;-27
2023/06/19 10:17:12;;;;;;;11.15;5.43;;;;;;;24.48;56.15;101395.81;5034646;27;96563;-31
2023/06/19 10:19:38;;;;;;;8.68;4.78;;;;;;;24.06;56.03;101388.44;5034783;27;96608;-28
2023/06/19 10:22:03;;;;;;;7.78;4.63;;;;;;;23.90;56.85;101380.09;5034388;27;98961;-27
2023/06/19 10:24:29;;;;;;;9.32;4.30;;;;;;;24.03;57.07;101390.69;5034358;27;99332;-27
2023/06/19 10:27:02;;;;;;;8.07;4.35;;;;;;;23.99;55.45;101384.63;5034646;28;96561;-27
2023/06/19 10:29:40;;;;;;;7.05;3.97;;;;;;;23.87;56.75;101402.56;5034555;28;96744;-27
2023/06/19 10:32:06;;;;;;;8.48;3.85;;;;;;;23.99;57.13;101401.22;5032714;28;101611;-27
2023/06/19 10:34:35;;;;;;;5.10;3.70;;;;;;;23.76;56.68;101394.56;5034237;27;97859;-27
2023/06/19 10:37:00;;;;;;;8.93;4.38;;;;;;;23.65;56.40;101388.28;5033179;28;96589;-27
2023/06/19 10:39:25;;;;;;;7.63;4.70;;;;;;;23.63;56.77;101397.78;5034901;27;96771;-27
2023/06/19 10:41:51;;;;;;;7.10;4.57;;;;;;;23.37;56.59;101398.69;5033698;28;104397;-27
2023/06/19 10:44:16;;;;;;;10.60;4.90;;;;;;;23.19;56.85;101382.19;5033872;27;107126;-28
2023/06/19 10:46:41;;;;;;;9.52;4.55;;;;;;;23.43;57.64;101392.53;5034017;28;102973;-27
2023/06/19 10:49:10;;;;;;;9.32;4.53;;;;;;;23.71;56.75;101389.50;5034697;27;96917;-27
2023/06/19 10:51:40;;;;;;;9.07;4.28;;;;;;;23.91;56.16;101403.97;5033963;27;99558;-27
2023/06/19 10:54:06;;;;;;;7.18;3.83;;;;;;;24.29;55.39;101379.50;5032717;28;100794;-27
2023/06/19 10:56:32;;;;;;;6.72;3.95;;;;;;;24.72;54.43;101391.31;5033059;28;96623;-27
2023/06/19 10:59:02;;;;;;;8.35;4.57;;;;;;;24.88;53.05;101384.88;5034763;27;96784;-27
2023/06/19 11:02:00;;;;;;;8.10;4.53;;;;;;;24.69;53.28;101375.00;5033921;27;99720;-27
2023/06/19 11:04:26;;;;;;;8.55;4.00;;;;;;;24.65;54.28;101382.81;5020251;27;99391;-28
2023/06/19 11:06:52;;;;;;;8.85;4.18;;;;;;;24.44;54.85;101374.13;5018661;28;96717;-28
2023/06/19 11:09:19;;;;;;;7.38;4.28;;;;;;;24.68;54.38;101367.75;4994372;28;96900;-27
2023/06/19 11:11:49;;;;;;;5.72;4.05;;;;;;;24.88;53.80;101376.56;4993678;28;99532;-27
2023/06/19 11:14:16;;;;;;;11.32;4.15;;;;;;;25.22;52.68;101368.03;4993649;28;98207;-27
2023/06/19 11:16:43;;;;;;;6.82;4.00;;;;;;;25.40;53.08;101376.97;4992697;28;96661;-29
2023/06/19 11:19:14;;;;;;;7.35;4.35;;;;;;;25.25;52.47;101370.44;4992638;28;96857;-28